sensor_id;sensor_type;location;lat;lon;timestamp;pressure;altitude;pressure_sealevel;temperature;humidity
79455;BME280;68900;52.134;5.420;2023-12-22T00:02:19;100335.44;;;6.63;95.33
79455;BME280;68900;52.134;5.420;2023-12-22T00:04:46;100352.06;;;6.57;95.40
79455;BME280;68900;52.134;5.420;2023-12-22T00:07:13;100350.22;;;6.48;95.61
79455;BME280;68900;52.134;5.420;2023-12-22T00:09:40;100367.25;;;6.38;96.42
79455;BME280;68900;52.134;5.420;2023-12-22T00:12:06;100373.56;;;6.27;95.81
79455;BME280;68900;52.134;5.420;2023-12-22T00:14:35;100390.56;;;6.16;95.80
79455;BME280;68900;52.134;5.420;2023-12-22T00:17:04;100380.38;;;6.10;96.13
79455;BME280;68900;52.134;5.420;2023-12-22T00:19:31;100393.94;;;6.09;96.61
79455;BME280;68900;52.134;5.420;2023-12-22T00:21:58;100402.22;;;6.06;96.68
79455;BME280;68900;52.134;5.420;2023-12-22T00:24:24;100402.47;;;6.03;95.87
79455;BME280;68900;52.134;5.420;2023-12-22T00:26:51;100393.16;;;5.97;95.71
79455;BME280;68900;52.134;5.420;2023-12-22T00:29:17;100385.41;;;5.94;95.34
79455;BME280;68900;52.134;5.420;2023-12-22T00:31:46;100392.00;;;5.90;95.15
79455;BME280;68900;52.134;5.420;2023-12-22T00:34:13;100408.19;;;5.89;94.57
79455;BME280;68900;52.134;5.420;2023-12-22T00:36:40;100393.94;;;5.88;94.05
79455;BME280;68900;52.134;5.420;2023-12-22T00:39:06;100422.41;;;5.89;93.49
79455;BME280;68900;52.134;5.420;2023-12-22T00:41:34;100397.47;;;5.89;93.59
79455;BME280;68900;52.134;5.420;2023-12-22T00:44:03;100379.84;;;5.86;93.71
79455;BME280;68900;52.134;5.420;2023-12-22T00:46:29;100386.28;;;5.84;93.80
79455;BME280;68900;52.134;5.420;2023-12-22T00:48:56;100383.50;;;5.85;93.38
79455;BME280;68900;52.134;5.420;2023-12-22T00:51:22;100387.00;;;5.86;93.83
79455;BME280;68900;52.134;5.420;2023-12-22T00:53:49;100394.19;;;5.85;94.56
79455;BME280;68900;52.134;5.420;2023-12-22T00:56:15;100406.59;;;5.86;94.22
79455;BME280;68900;52.134;5.420;2023-12-22T00:58:41;100409.41;;;5.85;94.59
79455;BME280;68900;52.134;5.420;2023-12-22T01:01:12;100408.53;;;5.84;94.59
79455;BME280;68900;52.134;5.420;2023-12-22T01:03:39;100411.94;;;5.86;94.74
79455;BME280;68900;52.134;5.420;2023-12-22T01:06:06;100417.91;;;5.90;94.80
79455;BME280;68900;52.134;5.420;2023-12-22T01:08:32;100423.84;;;5.93;95.33
79455;BME280;68900;52.134;5.420;2023-12-22T01:10:59;100422.75;;;5.96;95.44
79455;BME280;68900;52.134;5.420;2023-12-22T01:13:25;100427.84;;;5.99;95.67
79455;BME280;68900;52.134;5.420;2023-12-22T01:15:52;100434.03;;;5.99;95.50
79455;BME280;68900;52.134;5.420;2023-12-22T01:18:18;100433.06;;;6.00;95.89
79455;BME280;68900;52.134;5.420;2023-12-22T01:20:45;100437.16;;;6.04;95.90
79455;BME280;68900;52.134;5.420;2023-12-22T01:23:11;100437.16;;;6.04;96.21
79455;BME280;68900;52.134;5.420;2023-12-22T01:25:38;100427.16;;;6.06;96.18
79455;BME280;68900;52.134;5.420;2023-12-22T01:28:05;100424.47;;;6.06;95.93
79455;BME280;68900;52.134;5.420;2023-12-22T01:30:32;100440.53;;;6.06;95.66
79455;BME280;68900;52.134;5.420;2023-12-22T01:32:59;100422.53;;;6.08;95.42
79455;BME280;68900;52.134;5.420;2023-12-22T01:35:25;100419.00;;;6.08;96.09
79455;BME280;68900;52.134;5.420;2023-12-22T01:37:52;100416.59;;;6.05;96.41
79455;BME280;68900;52.134;5.420;2023-12-22T01:40:18;100427.44;;;6.03;95.67
79455;BME280;68900;52.134;5.420;2023-12-22T01:42:45;100419.53;;;6.02;96.64
79455;BME280;68900;52.134;5.420;2023-12-22T01:45:12;100415.03;;;6.02;96.07
79455;BME280;68900;52.134;5.420;2023-12-22T01:47:39;100413.19;;;6.03;96.37
79455;BME280;68900;52.134;5.420;2023-12-22T01:50:10;100416.00;;;6.01;96.49
79455;BME280;68900;52.134;5.420;2023-12-22T01:52:39;100408.13;;;6.00;96.80
79455;BME280;68900;52.134;5.420;2023-12-22T01:55:10;100411.78;;;5.99;96.72
79455;BME280;68900;52.134;5.420;2023-12-22T01:57:39;100408.13;;;6.00;96.40
79455;BME280;68900;52.134;5.420;2023-12-22T02:00:11;100432.06;;;6.01;96.50
79455;BME280;68900;52.134;5.420;2023-12-22T02:02:41;100433.19;;;5.99;96.63
79455;BME280;68900;52.134;5.420;2023-12-22T02:05:10;100433.19;;;5.99;97.04
79455;BME280;68900;52.134;5.420;2023-12-22T02:07:41;100416.16;;;6.00;97.50
79455;BME280;68900;52.134;5.420;2023-12-22T02:10:09;100424.03;;;6.01;97.50
79455;BME280;68900;52.134;5.420;2023-12-22T02:12:36;100422.34;;;6.00;97.32
79455;BME280;68900;52.134;5.420;2023-12-22T02:15:04;100415.19;;;6.01;97.26
79455;BME280;68900;52.134;5.420;2023-12-22T02:17:48;100413.31;;;6.01;97.66
79455;BME280;68900;52.134;5.420;2023-12-22T02:20:16;100413.06;;;6.04;97.49
79455;BME280;68900;52.134;5.420;2023-12-22T02:22:43;100402.22;;;6.06;97.40
79455;BME280;68900;52.134;5.420;2023-12-22T02:25:09;100403.06;;;6.06;97.45
79455;BME280;68900;52.134;5.420;2023-12-22T02:30:39;100385.44;;;6.04;97.65
79455;BME280;68900;52.134;5.420;2023-12-22T02:33:09;100405.03;;;6.04;97.71
79455;BME280;68900;52.134;5.420;2023-12-22T02:35:37;100393.34;;;6.05;97.98
79455;BME280;68900;52.134;5.420;2023-12-22T02:38:05;100390.53;;;6.07;97.74
79455;BME280;68900;52.134;5.420;2023-12-22T02:40:34;100385.91;;;6.09;97.44
79455;BME280;68900;52.134;5.420;2023-12-22T02:43:02;100373.94;;;6.13;97.30
79455;BME280;68900;52.134;5.420;2023-12-22T02:45:29;100360.41;;;6.14;97.18
79455;BME280;68900;52.134;5.420;2023-12-22T02:47:56;100361.00;;;6.18;96.78
79455;BME280;68900;52.134;5.420;2023-12-22T02:50:23;100367.88;;;6.20;96.31
79455;BME280;68900;52.134;5.420;2023-12-22T02:52:49;100347.88;;;6.25;95.70
79455;BME280;68900;52.134;5.420;2023-12-22T02:55:16;100374.00;;;6.32;94.80
79455;BME280;68900;52.134;5.420;2023-12-22T02:57:43;100356.84;;;6.44;93.65
79455;BME280;68900;52.134;5.420;2023-12-22T03:00:10;100368.97;;;6.48;92.89
79455;BME280;68900;52.134;5.420;2023-12-22T03:02:37;100364.78;;;6.55;91.64
79455;BME280;68900;52.134;5.420;2023-12-22T03:05:04;100382.25;;;6.59;91.02
79455;BME280;68900;52.134;5.420;2023-12-22T03:07:31;100375.06;;;6.60;91.65
79455;BME280;68900;52.134;5.420;2023-12-22T03:09:58;100384.09;;;6.59;91.04
79455;BME280;68900;52.134;5.420;2023-12-22T03:12:24;100393.66;;;6.61;90.62
79455;BME280;68900;52.134;5.420;2023-12-22T03:14:51;100385.22;;;6.66;90.79
79455;BME280;68900;52.134;5.420;2023-12-22T03:17:17;100391.03;;;6.71;90.72
79455;BME280;68900;52.134;5.420;2023-12-22T03:19:44;100402.63;;;6.81;90.14
79455;BME280;68900;52.134;5.420;2023-12-22T03:22:10;100398.66;;;6.85;89.33
79455;BME280;68900;52.134;5.420;2023-12-22T03:24:37;100405.03;;;6.84;89.22
79455;BME280;68900;52.134;5.420;2023-12-22T03:27:09;100409.56;;;6.93;89.10
79455;BME280;68900;52.134;5.420;2023-12-22T03:29:36;100389.66;;;6.96;88.48
79455;BME280;68900;52.134;5.420;2023-12-22T03:32:03;100401.78;;;7.00;87.29
79455;BME280;68900;52.134;5.420;2023-12-22T03:34:29;100412.53;;;7.09;87.33
79455;BME280;68900;52.134;5.420;2023-12-22T03:36:56;100421.00;;;7.15;86.06
79455;BME280;68900;52.134;5.420;2023-12-22T03:39:22;100428.75;;;7.18;85.60
79455;BME280;68900;52.134;5.420;2023-12-22T03:41:51;100455.72;;;6.97;86.61
79455;BME280;68900;52.134;5.420;2023-12-22T03:44:18;100465.66;;;6.76;88.24
79455;BME280;68900;52.134;5.420;2023-12-22T03:46:47;100478.56;;;6.51;89.67
79455;BME280;68900;52.134;5.420;2023-12-22T03:49:13;100472.53;;;6.29;91.56
79455;BME280;68900;52.134;5.420;2023-12-22T03:51:40;100452.97;;;6.07;92.74
79455;BME280;68900;52.134;5.420;2023-12-22T03:54:08;100454.03;;;5.95;94.21
79455;BME280;68900;52.134;5.420;2023-12-22T03:56:34;100450.16;;;5.88;94.29
79455;BME280;68900;52.134;5.420;2023-12-22T03:59:01;100456.72;;;5.84;94.78
79455;BME280;68900;52.134;5.420;2023-12-22T04:01:28;100450.53;;;5.84;95.24
79455;BME280;68900;52.134;5.420;2023-12-22T04:03:54;100451.16;;;5.87;95.78
79455;BME280;68900;52.134;5.420;2023-12-22T04:06:21;100451.88;;;5.89;95.52
79455;BME280;68900;52.134;5.420;2023-12-22T04:08:47;100474.00;;;5.91;95.58
79455;BME280;68900;52.134;5.420;2023-12-22T04:11:14;100450.78;;;5.92;95.56
79455;BME280;68900;52.134;5.420;2023-12-22T04:13:41;100450.78;;;5.92;95.64
79455;BME280;68900;52.134;5.420;2023-12-22T04:16:07;100453.28;;;5.93;96.37
79455;BME280;68900;52.134;5.420;2023-12-22T04:18:34;100454.03;;;5.95;95.82
79455;BME280;68900;52.134;5.420;2023-12-22T04:21:00;100464.59;;;5.97;96.58
79455;BME280;68900;52.134;5.420;2023-12-22T04:23:27;100450.94;;;6.00;95.81
79455;BME280;68900;52.134;5.420;2023-12-22T04:25:54;100454.31;;;6.02;96.21
79455;BME280;68900;52.134;5.420;2023-12-22T04:28:21;100466.75;;;6.03;96.29
79455;BME280;68900;52.134;5.420;2023-12-22T04:30:47;100461.25;;;6.04;95.99
79455;BME280;68900;52.134;5.420;2023-12-22T04:33:14;100459.44;;;6.05;96.03
79455;BME280;68900;52.134;5.420;2023-12-22T04:35:40;100467.19;;;6.08;95.73
79455;BME280;68900;52.134;5.420;2023-12-22T04:38:07;100451.00;;;6.09;95.81
79455;BME280;68900;52.134;5.420;2023-12-22T04:40:34;100450.84;;;6.11;95.93
79455;BME280;68900;52.134;5.420;2023-12-22T04:43:00;100455.13;;;6.13;95.96
79455;BME280;68900;52.134;5.420;2023-12-22T04:45:27;100464.97;;;6.13;95.63
79455;BME280;68900;52.134;5.420;2023-12-22T04:47:54;100464.84;;;6.14;96.24
79455;BME280;68900;52.134;5.420;2023-12-22T04:50:20;100467.25;;;6.17;96.12
79455;BME280;68900;52.134;5.420;2023-12-22T04:52:47;100466.28;;;6.18;95.65
79455;BME280;68900;52.134;5.420;2023-12-22T04:55:13;100466.00;;;6.21;96.23
79455;BME280;68900;52.134;5.420;2023-12-22T04:57:41;100470.38;;;6.22;96.06
79455;BME280;68900;52.134;5.420;2023-12-22T05:00:08;100460.53;;;6.23;95.85
79455;BME280;68900;52.134;5.420;2023-12-22T05:02:37;100463.06;;;6.25;95.35
79455;BME280;68900;52.134;5.420;2023-12-22T05:05:04;100457.56;;;6.26;95.69
79455;BME280;68900;52.134;5.420;2023-12-22T05:07:31;100467.44;;;6.26;95.13
79455;BME280;68900;52.134;5.420;2023-12-22T05:09:57;100454.78;;;6.28;95.15
79455;BME280;68900;52.134;5.420;2023-12-22T05:12:23;100451.13;;;6.29;95.36
79455;BME280;68900;52.134;5.420;2023-12-22T05:14:50;100454.50;;;6.31;95.06
79455;BME280;68900;52.134;5.420;2023-12-22T05:17:16;100452.38;;;6.34;94.69
79455;BME280;68900;52.134;5.420;2023-12-22T05:19:43;100450.56;;;6.35;94.52
79455;BME280;68900;52.134;5.420;2023-12-22T05:22:09;100439.59;;;6.38;94.85
79455;BME280;68900;52.134;5.420;2023-12-22T05:24:37;100433.97;;;6.41;94.48
79455;BME280;68900;52.134;5.420;2023-12-22T05:27:04;100433.28;;;6.48;94.65
79455;BME280;68900;52.134;5.420;2023-12-22T05:29:30;100443.56;;;6.53;94.61
79455;BME280;68900;52.134;5.420;2023-12-22T05:31:57;100441.09;;;6.61;94.03
79455;BME280;68900;52.134;5.420;2023-12-22T05:34:24;100444.09;;;6.77;93.54
79455;BME280;68900;52.134;5.420;2023-12-22T05:36:50;100438.44;;;6.80;94.03
79455;BME280;68900;52.134;5.420;2023-12-22T05:39:17;100432.66;;;6.85;93.50
79455;BME280;68900;52.134;5.420;2023-12-22T05:41:44;100425.06;;;6.90;93.69
79455;BME280;68900;52.134;5.420;2023-12-22T05:44:10;100430.00;;;6.94;93.12
79455;BME280;68900;52.134;5.420;2023-12-22T05:46:37;100424.50;;;6.96;92.69
79455;BME280;68900;52.134;5.420;2023-12-22T05:49:07;100429.59;;;6.99;92.38
79455;BME280;68900;52.134;5.420;2023-12-22T05:51:40;100438.91;;;7.04;92.29
79455;BME280;68900;52.134;5.420;2023-12-22T05:54:08;100435.56;;;7.12;91.46
79455;BME280;68900;52.134;5.420;2023-12-22T05:56:34;100429.19;;;7.13;91.58
79455;BME280;68900;52.134;5.420;2023-12-22T05:59:01;100440.94;;;7.12;91.26
79455;BME280;68900;52.134;5.420;2023-12-22T06:01:28;100441.50;;;7.16;91.09
79455;BME280;68900;52.134;5.420;2023-12-22T06:03:54;100440.63;;;7.15;91.67
79455;BME280;68900;52.134;5.420;2023-12-22T06:06:22;100445.88;;;7.17;92.07
79455;BME280;68900;52.134;5.420;2023-12-22T06:08:48;100432.88;;;7.22;90.69
79455;BME280;68900;52.134;5.420;2023-12-22T06:11:15;100429.91;;;7.25;91.41
79455;BME280;68900;52.134;5.420;2023-12-22T06:13:42;100423.28;;;7.29;91.43
79455;BME280;68900;52.134;5.420;2023-12-22T06:16:15;100418.59;;;7.31;90.93
79455;BME280;68900;52.134;5.420;2023-12-22T06:18:42;100431.03;;;7.32;91.29
79455;BME280;68900;52.134;5.420;2023-12-22T06:21:09;100431.75;;;7.34;91.57
79455;BME280;68900;52.134;5.420;2023-12-22T06:23:36;100431.75;;;7.34;91.74
79455;BME280;68900;52.134;5.420;2023-12-22T06:26:10;100431.47;;;7.37;92.02
79455;BME280;68900;52.134;5.420;2023-12-22T06:28:37;100437.81;;;7.36;91.59
79455;BME280;68900;52.134;5.420;2023-12-22T06:31:07;100424.56;;;7.34;92.52
79455;BME280;68900;52.134;5.420;2023-12-22T06:33:34;100422.13;;;7.41;92.17
79455;BME280;68900;52.134;5.420;2023-12-22T06:36:01;100422.84;;;7.43;92.03
79455;BME280;68900;52.134;5.420;2023-12-22T06:38:28;100419.19;;;7.44;92.01
79455;BME280;68900;52.134;5.420;2023-12-22T06:40:55;100428.66;;;7.48;92.52
79455;BME280;68900;52.134;5.420;2023-12-22T06:43:22;100422.31;;;7.49;92.76
79455;BME280;68900;52.134;5.420;2023-12-22T06:45:48;100427.66;;;7.49;92.51
79455;BME280;68900;52.134;5.420;2023-12-22T06:48:15;100423.13;;;7.49;92.06
79455;BME280;68900;52.134;5.420;2023-12-22T06:50:42;100422.69;;;7.54;92.38
79455;BME280;68900;52.134;5.420;2023-12-22T06:53:11;100433.84;;;7.59;92.23
79455;BME280;68900;52.134;5.420;2023-12-22T06:55:51;100418.47;;;7.61;92.50
79455;BME280;68900;52.134;5.420;2023-12-22T06:58:17;100424.25;;;7.66;91.75
79455;BME280;68900;52.134;5.420;2023-12-22T07:00:44;100423.97;;;7.69;92.31
79455;BME280;68900;52.134;5.420;2023-12-22T07:03:14;100423.09;;;7.69;91.26
79455;BME280;68900;52.134;5.420;2023-12-22T07:05:43;100410.84;;;7.66;91.44
79455;BME280;68900;52.134;5.420;2023-12-22T07:08:10;100414.06;;;7.70;92.25
79455;BME280;68900;52.134;5.420;2023-12-22T07:10:37;100418.16;;;7.74;91.93
79455;BME280;68900;52.134;5.420;2023-12-22T07:13:04;100415.59;;;7.72;92.14
79455;BME280;68900;52.134;5.420;2023-12-22T07:15:32;100410.66;;;7.77;91.74
79455;BME280;68900;52.134;5.420;2023-12-22T07:17:58;100412.09;;;7.81;92.54
79455;BME280;68900;52.134;5.420;2023-12-22T07:20:25;100412.09;;;7.81;91.96
79455;BME280;68900;52.134;5.420;2023-12-22T07:22:51;100414.78;;;7.81;91.95
79455;BME280;68900;52.134;5.420;2023-12-22T07:25:21;100443.03;;;7.85;92.55
79455;BME280;68900;52.134;5.420;2023-12-22T07:27:49;100431.00;;;7.89;93.05
79455;BME280;68900;52.134;5.420;2023-12-22T07:30:16;100437.78;;;7.93;92.60
79455;BME280;68900;52.134;5.420;2023-12-22T07:32:44;100444.97;;;7.93;92.38
79455;BME280;68900;52.134;5.420;2023-12-22T07:35:11;100428.72;;;7.94;92.39
79455;BME280;68900;52.134;5.420;2023-12-22T07:37:38;100438.31;;;7.97;92.00
79455;BME280;68900;52.134;5.420;2023-12-22T07:40:05;100421.09;;;7.99;92.54
79455;BME280;68900;52.134;5.420;2023-12-22T07:42:32;100425.75;;;7.97;92.09
79455;BME280;68900;52.134;5.420;2023-12-22T07:44:59;100427.44;;;7.98;92.27
79455;BME280;68900;52.134;5.420;2023-12-22T07:47:27;100433.09;;;7.95;92.53
79455;BME280;68900;52.134;5.420;2023-12-22T07:49:54;100438.75;;;7.92;93.20
79455;BME280;68900;52.134;5.420;2023-12-22T07:52:20;100444.00;;;7.84;92.54
79455;BME280;68900;52.134;5.420;2023-12-22T07:54:47;100425.78;;;7.78;93.38
79455;BME280;68900;52.134;5.420;2023-12-22T07:57:14;100424.69;;;7.71;94.26
79455;BME280;68900;52.134;5.420;2023-12-22T07:59:40;100417.19;;;7.65;95.01
79455;BME280;68900;52.134;5.420;2023-12-22T08:02:07;100435.69;;;7.59;95.48
79455;BME280;68900;52.134;5.420;2023-12-22T08:04:34;100438.66;;;7.55;96.64
79455;BME280;68900;52.134;5.420;2023-12-22T08:07:00;100440.78;;;7.52;97.44
79455;BME280;68900;52.134;5.420;2023-12-22T08:09:28;100448.84;;;7.52;98.45
79455;BME280;68900;52.134;5.420;2023-12-22T08:11:55;100442.34;;;7.54;97.98
79455;BME280;68900;52.134;5.420;2023-12-22T08:14:23;100435.13;;;7.55;98.57
79455;BME280;68900;52.134;5.420;2023-12-22T08:16:49;100434.69;;;7.60;99.22
79455;BME280;68900;52.134;5.420;2023-12-22T08:19:16;100444.47;;;7.61;99.40
79455;BME280;68900;52.134;5.420;2023-12-22T08:21:43;100436.09;;;7.64;99.82
79455;BME280;68900;52.134;5.420;2023-12-22T08:24:12;100428.63;;;7.67;99.33
79455;BME280;68900;52.134;5.420;2023-12-22T08:26:48;100426.78;;;7.68;99.36
79455;BME280;68900;52.134;5.420;2023-12-22T08:29:15;100416.31;;;7.74;99.64
79455;BME280;68900;52.134;5.420;2023-12-22T08:31:42;100411.81;;;7.75;100.00
79455;BME280;68900;52.134;5.420;2023-12-22T08:34:10;100404.59;;;7.75;100.00
79455;BME280;68900;52.134;5.420;2023-12-22T08:36:37;100400.09;;;7.76;100.00
79455;BME280;68900;52.134;5.420;2023-12-22T08:39:04;100407.28;;;7.75;100.00
79455;BME280;68900;52.134;5.420;2023-12-22T08:41:34;100391.84;;;7.77;100.00
79455;BME280;68900;52.134;5.420;2023-12-22T08:44:05;100394.41;;;7.79;100.00
79455;BME280;68900;52.134;5.420;2023-12-22T08:46:33;100398.06;;;7.78;100.00
79455;BME280;68900;52.134;5.420;2023-12-22T08:49:01;100394.72;;;7.76;100.00
79455;BME280;68900;52.134;5.420;2023-12-22T08:51:28;100390.03;;;7.78;100.00
79455;BME280;68900;52.134;5.420;2023-12-22T08:53:55;100388.91;;;7.80;100.00
79455;BME280;68900;52.134;5.420;2023-12-22T08:56:24;100388.59;;;7.83;100.00
79455;BME280;68900;52.134;5.420;2023-12-22T08:58:52;100390.16;;;7.86;100.00
79455;BME280;68900;52.134;5.420;2023-12-22T09:01:19;100382.66;;;7.89;100.00
79455;BME280;68900;52.134;5.420;2023-12-22T09:03:46;100387.59;;;7.94;100.00
79455;BME280;68900;52.134;5.420;2023-12-22T09:06:20;100398.59;;;8.00;100.00
79455;BME280;68900;52.134;5.420;2023-12-22T09:08:47;100392.63;;;8.07;100.00
79455;BME280;68900;52.134;5.420;2023-12-22T09:11:19;100400.25;;;8.11;100.00
79455;BME280;68900;52.134;5.420;2023-12-22T09:13:45;100389.78;;;8.18;100.00
79455;BME280;68900;52.134;5.420;2023-12-22T09:16:12;100402.91;;;8.21;100.00
79455;BME280;68900;52.134;5.420;2023-12-22T09:18:41;100390.19;;;8.23;100.00
79455;BME280;68900;52.134;5.420;2023-12-22T09:21:11;100400.63;;;8.26;100.00
79455;BME280;68900;52.134;5.420;2023-12-22T09:23:38;100412.38;;;8.25;100.00
79455;BME280;68900;52.134;5.420;2023-12-22T09:26:04;100423.56;;;8.20;100.00
79455;BME280;68900;52.134;5.420;2023-12-22T09:28:31;100408.88;;;8.15;100.00
79455;BME280;68900;52.134;5.420;2023-12-22T09:30:57;100417.66;;;8.07;100.00
79455;BME280;68900;52.134;5.420;2023-12-22T09:33:24;100417.38;;;8.00;99.83
79455;BME280;68900;52.134;5.420;2023-12-22T09:36:06;100422.78;;;7.91;99.41
79455;BME280;68900;52.134;5.420;2023-12-22T09:38:33;100410.53;;;7.79;99.16
79455;BME280;68900;52.134;5.420;2023-12-22T09:41:00;100412.25;;;7.70;99.95
79455;BME280;68900;52.134;5.420;2023-12-22T09:43:27;100400.34;;;7.63;100.00
79455;BME280;68900;52.134;5.420;2023-12-22T09:45:55;100404.06;;;7.62;100.00
79455;BME280;68900;52.134;5.420;2023-12-22T09:48:22;100398.81;;;7.61;99.70
79455;BME280;68900;52.134;5.420;2023-12-22T09:50:54;100402.34;;;7.61;100.00
79455;BME280;68900;52.134;5.420;2023-12-22T09:53:21;100396.84;;;7.63;100.00
79455;BME280;68900;52.134;5.420;2023-12-22T09:55:49;100401.94;;;7.66;100.00
79455;BME280;68900;52.134;5.420;2023-12-22T09:58:16;100396.13;;;7.70;100.00
79455;BME280;68900;52.134;5.420;2023-12-22T10:00:44;100391.19;;;7.75;100.00
79455;BME280;68900;52.134;5.420;2023-12-22T10:03:12;100393.97;;;7.83;100.00
79455;BME280;68900;52.134;5.420;2023-12-22T10:05:42;100387.19;;;7.89;100.00
79455;BME280;68900;52.134;5.420;2023-12-22T10:08:10;100392.53;;;7.98;100.00
79455;BME280;68900;52.134;5.420;2023-12-22T10:10:38;100399.84;;;8.06;100.00
79455;BME280;68900;52.134;5.420;2023-12-22T10:13:05;100399.13;;;8.14;100.00
79455;BME280;68900;52.134;5.420;2023-12-22T10:15:39;100403.03;;;8.19;100.00
79455;BME280;68900;52.134;5.420;2023-12-22T10:18:08;100407.97;;;8.24;100.00
79455;BME280;68900;52.134;5.420;2023-12-22T10:20:35;100408.81;;;8.34;100.00
79455;BME280;68900;52.134;5.420;2023-12-22T10:23:02;100392.13;;;8.40;100.00
79455;BME280;68900;52.134;5.420;2023-12-22T10:25:31;100395.22;;;8.45;100.00
79455;BME280;68900;52.134;5.420;2023-12-22T10:31:09;100401.13;;;8.49;100.00
79455;BME280;68900;52.134;5.420;2023-12-22T10:40:37;100408.44;;;8.56;100.00
79455;BME280;68900;52.134;5.420;2023-12-22T10:43:04;100416.06;;;8.61;100.00
79455;BME280;68900;52.134;5.420;2023-12-22T10:45:31;100414.63;;;8.66;100.00
79455;BME280;68900;52.134;5.420;2023-12-22T10:47:57;100405.56;;;8.67;100.00
79455;BME280;68900;52.134;5.420;2023-12-22T10:50:24;100413.47;;;8.69;100.00
79455;BME280;68900;52.134;5.420;2023-12-22T10:52:51;100414.88;;;8.73;100.00
79455;BME280;68900;52.134;5.420;2023-12-22T10:55:18;100424.19;;;8.78;100.00
79455;BME280;68900;52.134;5.420;2023-12-22T10:57:46;100400.53;;;8.82;100.00
79455;BME280;68900;52.134;5.420;2023-12-22T11:00:19;100405.72;;;8.83;100.00
79455;BME280;68900;52.134;5.420;2023-12-22T11:02:49;100397.84;;;8.82;100.00
79455;BME280;68900;52.134;5.420;2023-12-22T11:05:18;100394.97;;;8.83;100.00
79455;BME280;68900;52.134;5.420;2023-12-22T11:08:07;100380.25;;;8.88;100.00
79455;BME280;68900;52.134;5.420;2023-12-22T11:10:36;100376.53;;;8.88;100.00
79455;BME280;68900;52.134;5.420;2023-12-22T11:13:04;100390.69;;;8.91;100.00
79455;BME280;68900;52.134;5.420;2023-12-22T11:15:32;100382.31;;;8.94;100.00
79455;BME280;68900;52.134;5.420;2023-12-22T11:18:01;100388.22;;;8.97;100.00
79455;BME280;68900;52.134;5.420;2023-12-22T11:20:29;100386.25;;;8.99;100.00
79455;BME280;68900;52.134;5.420;2023-12-22T11:23:02;100385.06;;;9.02;100.00
79455;BME280;68900;52.134;5.420;2023-12-22T11:25:32;100385.78;;;9.04;100.00
79455;BME280;68900;52.134;5.420;2023-12-22T11:28:00;100382.09;;;9.05;100.00
79455;BME280;68900;52.134;5.420;2023-12-22T11:30:30;100380.66;;;9.10;100.00
79455;BME280;68900;52.134;5.420;2023-12-22T11:32:57;100377.38;;;9.07;100.00
79455;BME280;68900;52.134;5.420;2023-12-22T11:35:25;100378.41;;;9.06;100.00
79455;BME280;68900;52.134;5.420;2023-12-22T11:38:00;100380.78;;;9.09;100.00
79455;BME280;68900;52.134;5.420;2023-12-22T11:40:28;100367.88;;;9.12;100.00
79455;BME280;68900;52.134;5.420;2023-12-22T11:42:55;100385.38;;;9.16;100.00
79455;BME280;68900;52.134;5.420;2023-12-22T11:45:23;100364.72;;;9.17;100.00
79455;BME280;68900;52.134;5.420;2023-12-22T11:47:50;100349.09;;;9.20;100.00
79455;BME280;68900;52.134;5.420;2023-12-22T11:50:30;100370.16;;;9.25;100.00
79455;BME280;68900;52.134;5.420;2023-12-22T11:52:57;100362.94;;;9.25;100.00
79455;BME280;68900;52.134;5.420;2023-12-22T11:55:57;100367.19;;;9.28;100.00
79455;BME280;68900;52.134;5.420;2023-12-22T11:58:48;100358.78;;;9.31;99.92
79455;BME280;68900;52.134;5.420;2023-12-22T12:01:19;100361.16;;;9.34;99.72
79455;BME280;68900;52.134;5.420;2023-12-22T12:03:51;100370.78;;;9.37;99.61
79455;BME280;68900;52.134;5.420;2023-12-22T12:06:30;100347.56;;;9.36;99.21
79455;BME280;68900;52.134;5.420;2023-12-22T12:08:58;100329.69;;;9.35;98.96
79455;BME280;68900;52.134;5.420;2023-12-22T12:14:29;100318.09;;;9.34;99.81
79455;BME280;68900;52.134;5.420;2023-12-22T12:17:03;100321.47;;;9.36;100.00
79455;BME280;68900;52.134;5.420;2023-12-22T12:19:34;100311.72;;;9.35;100.00
79455;BME280;68900;52.134;5.420;2023-12-22T12:22:06;100328.41;;;9.39;99.28
79455;BME280;68900;52.134;5.420;2023-12-22T12:24:36;100323.56;;;9.42;99.36
79455;BME280;68900;52.134;5.420;2023-12-22T12:27:02;100327.94;;;9.43;99.54
79455;BME280;68900;52.134;5.420;2023-12-22T12:29:32;100333.31;;;9.43;98.80
79455;BME280;68900;52.134;5.420;2023-12-22T12:32:05;100318.53;;;9.47;99.26
79455;BME280;68900;52.134;5.420;2023-12-22T12:34:35;100312.97;;;9.49;99.47
79455;BME280;68900;52.134;5.420;2023-12-22T12:37:05;100314.69;;;9.50;98.63
79455;BME280;68900;52.134;5.420;2023-12-22T12:39:34;100300.75;;;9.54;98.74
79455;BME280;68900;52.134;5.420;2023-12-22T12:42:01;100303.59;;;9.53;99.06
79455;BME280;68900;52.134;5.420;2023-12-22T12:44:44;100307.44;;;9.50;98.66
79455;BME280;68900;52.134;5.420;2023-12-22T12:47:12;100313.34;;;9.54;98.28
79455;BME280;68900;52.134;5.420;2023-12-22T12:49:39;100328.53;;;9.55;97.39
79455;BME280;68900;52.134;5.420;2023-12-22T12:52:13;100332.59;;;9.59;97.73
79455;BME280;68900;52.134;5.420;2023-12-22T12:54:41;100354.13;;;9.59;98.26
79455;BME280;68900;52.134;5.420;2023-12-22T12:57:14;100346.91;;;9.59;97.98
79455;BME280;68900;52.134;5.420;2023-12-22T12:59:44;100344.19;;;9.59;98.21
79455;BME280;68900;52.134;5.420;2023-12-22T13:02:11;100331.13;;;9.64;97.80
79455;BME280;68900;52.134;5.420;2023-12-22T13:04:38;100343.59;;;9.65;97.44
79455;BME280;68900;52.134;5.420;2023-12-22T13:07:06;100342.88;;;9.63;96.81
79455;BME280;68900;52.134;5.420;2023-12-22T13:09:33;100345.25;;;9.66;97.44
79455;BME280;68900;52.134;5.420;2023-12-22T13:12:00;100343.59;;;9.65;96.68
79455;BME280;68900;52.134;5.420;2023-12-22T13:14:27;100334.81;;;9.63;96.75
79455;BME280;68900;52.134;5.420;2023-12-22T13:16:55;100331.97;;;9.65;96.81
79455;BME280;68900;52.134;5.420;2023-12-22T13:19:24;100345.94;;;9.68;96.03